Dellwood, Missouri
Current Conditions -  °F | °C
As of 3:51 AM on Thursday 23 Oct 2014 (Local Time) from KSTL Reporting Station
Few Clouds Few Clouds  
Wind Chill: 39°   Ceiling: Unl
Heat Index: 43°   Visibility: 10mi
Dew Point: 38°   Wind: 6mph
Humidity: 82%   Direction: 120°ESE
Pressure: 30.2"   Gusts: NA
Location:  38.7423°N, 90.2608°W
Report Text: KSTL 230851Z 12005KT 10SM FEW250 06/03 A3020 RMK AO2 SLP227 T00610033 58006
Loading
Personal Weather Stations






























Interactive Weather Map
Tropical Storm Tracking
New forecast layout! Learn more

10-Day Weather Forecast

Advertisements
Track Severe Weather on mobile